Terminal Aerodrome Forecast
Issued by NWS

Home | Current Version | Previous Version | Text Only | Print | Product List | Glossary On
Versions: 1 2 3 4 5 6 7 8 9 10 11 12 13 14
000
FTUS43 KJKL 191556 AAB
TAFSME
TAF AMD
KSME 191556Z 1916/2012 27006KT P6SM BKN015 BKN025
     FM191900 27006KT P6SM BKN025
     FM192100 28007KT P6SM BKN040
     FM192200 28006KT P6SM SCT070=

USA.gov is the U.S. government's official web portal to all federal, state and local government web resources and services.